Time;durP1;ratioP1;P1;durP2;ratioP2;P2;SDS_P1;SDS_P2;PMS_P1;PMS_P2;Temp;Humidity;BMP_temperature;BMP_pressure;BME280_temperature;BME280_humidity;BME280_pressure;Samples;Min_cycle;Max_cycle;Signal;HPM_P1;HPM_P2
2021/11/27 00:00:47;;;;;;;3.38;1.35;;;;;;;;;;4954120;28;20780;-81
2021/11/27 00:03:15;;;;;;;1.50;1.20;;;;;;;;;;4947744;29;20205;-77
2021/11/27 00:05:42;;;;;;;1.33;1.00;;;;;;;;;;4953819;28;20285;-79
2021/11/27 00:08:11;;;;;;;1.33;1.23;;;;;;;;;;4933335;29;20237;-80
2021/11/27 00:10:39;;;;;;;1.17;1.08;;;;;;;;;;4932750;29;20202;-78
2021/11/27 00:13:07;;;;;;;1.75;1.13;;;;;;;;;;4933321;29;20206;-77
2021/11/27 00:15:36;;;;;;;2.90;1.50;;;;;;;;;;4934078;29;20214;-79
2021/11/27 00:18:05;;;;;;;1.40;1.30;;;;;;;;;;4935715;29;20720;-81
2021/11/27 00:20:33;;;;;;;1.13;1.00;;;;;;;;;;4936438;29;20206;-80
2021/11/27 00:23:01;;;;;;;1.35;0.95;;;;;;;;;;4955061;28;20533;-81
2021/11/27 00:25:28;;;;;;;1.10;0.93;;;;;;;;;;4934470;29;20211;-79
2021/11/27 00:27:56;;;;;;;1.33;1.23;;;;;;;;;;4937407;29;20219;-77
2021/11/27 00:30:26;;;;;;;1.48;1.20;;;;;;;;;;4933684;29;20202;-79
2021/11/27 00:32:53;;;;;;;2.38;1.30;;;;;;;;;;4932183;29;20191;-79
2021/11/27 00:35:21;;;;;;;1.10;1.00;;;;;;;;;;4932559;29;20206;-80
2021/11/27 00:37:49;;;;;;;1.13;1.02;;;;;;;;;;4934296;29;20600;-79
2021/11/27 00:40:16;;;;;;;1.10;1.00;;;;;;;;;;4933371;29;20202;-83
2021/11/27 00:42:44;;;;;;;1.60;1.38;;;;;;;;;;4935296;29;20489;-78
2021/11/27 00:45:12;;;;;;;1.52;1.42;;;;;;;;;;4939817;28;20221;-77
2021/11/27 00:47:40;;;;;;;1.27;1.10;;;;;;;;;;4962678;28;20225;-76
2021/11/27 00:50:07;;;;;;;1.17;1.00;;;;;;;;;;4933712;29;20668;-80
2021/11/27 00:52:36;;;;;;;2.28;1.17;;;;;;;;;;4932448;29;20198;-81
2021/11/27 00:55:03;;;;;;;1.38;1.10;;;;;;;;;;4932316;29;20202;-79
2021/11/27 00:57:31;;;;;;;1.30;1.20;;;;;;;;;;4932167;29;20262;-78
2021/11/27 00:59:58;;;;;;;1.20;1.10;;;;;;;;;;4939350;29;20191;-79
2021/11/27 01:02:25;;;;;;;1.25;1.00;;;;;;;;;;4937093;29;20221;-81
2021/11/27 01:04:52;;;;;;;1.33;1.10;;;;;;;;;;4929031;29;20203;-81
2021/11/27 01:07:20;;;;;;;1.10;1.00;;;;;;;;;;4932483;29;20227;-79
2021/11/27 01:09:48;;;;;;;1.90;1.00;;;;;;;;;;4934201;29;20207;-79
2021/11/27 01:12:16;;;;;;;1.83;1.35;;;;;;;;;;4935908;29;20217;-80
2021/11/27 01:14:43;;;;;;;0.98;0.90;;;;;;;;;;4938659;29;20210;-80
2021/11/27 01:17:11;;;;;;;1.75;1.35;;;;;;;;;;4940526;28;20230;-80
2021/11/27 01:19:39;;;;;;;1.42;1.05;;;;;;;;;;4934343;29;20206;-79
2021/11/27 01:22:07;;;;;;;1.45;1.10;;;;;;;;;;4935320;29;20237;-81
2021/11/27 01:24:35;;;;;;;1.17;1.08;;;;;;;;;;4934967;29;20210;-77
2021/11/27 01:27:04;;;;;;;1.63;1.00;;;;;;;;;;4934828;29;20229;-80
2021/11/27 01:29:31;;;;;;;1.35;1.05;;;;;;;;;;4935739;29;20302;-79
2021/11/27 01:31:58;;;;;;;0.95;0.85;;;;;;;;;;4942906;29;20210;-81
2021/11/27 01:34:26;;;;;;;1.20;1.00;;;;;;;;;;4947234;28;20242;-81
2021/11/27 01:36:53;;;;;;;0.80;0.80;;;;;;;;;;4954807;28;20222;-81
2021/11/27 01:39:21;;;;;;;1.48;1.10;;;;;;;;;;4934347;29;20212;-78
2021/11/27 01:41:48;;;;;;;1.10;1.00;;;;;;;;;;4934097;29;20250;-81
2021/11/27 01:44:16;;;;;;;1.10;1.00;;;;;;;;;;4935915;29;20213;-78
2021/11/27 01:46:44;;;;;;;0.93;0.82;;;;;;;;;;4941519;28;20245;-82
2021/11/27 01:49:11;;;;;;;0.80;0.80;;;;;;;;;;4943931;28;20206;-77
2021/11/27 01:51:39;;;;;;;1.60;0.95;;;;;;;;;;4954459;28;20194;-79
2021/11/27 01:54:08;;;;;;;1.10;0.90;;;;;;;;;;4953964;28;20198;-80
2021/11/27 01:56:37;;;;;;;1.00;0.82;;;;;;;;;;4953197;28;20703;-81
2021/11/27 01:59:06;;;;;;;0.82;0.80;;;;;;;;;;4948831;28;20615;-79
2021/11/27 02:01:35;;;;;;;1.10;0.98;;;;;;;;;;4953329;28;20218;-78
2021/11/27 02:04:04;;;;;;;1.40;1.00;;;;;;;;;;4939052;28;21592;-78
2021/11/27 02:06:31;;;;;;;2.10;1.00;;;;;;;;;;4934858;29;20199;-78
2021/11/27 02:08:59;;;;;;;1.13;1.02;;;;;;;;;;4933246;29;20214;-79
2021/11/27 02:11:28;;;;;;;1.30;0.90;;;;;;;;;;4934711;29;20249;-79
2021/11/27 02:13:56;;;;;;;0.95;0.85;;;;;;;;;;4930772;29;20203;-77
2021/11/27 02:16:23;;;;;;;1.55;0.88;;;;;;;;;;4937030;28;20564;-78
2021/11/27 02:18:52;;;;;;;1.10;1.00;;;;;;;;;;4941865;28;20194;-78
2021/11/27 02:21:21;;;;;;;1.27;0.90;;;;;;;;;;4938898;29;20226;-82
2021/11/27 02:23:49;;;;;;;1.00;0.90;;;;;;;;;;4931950;29;20213;-80
2021/11/27 02:26:18;;;;;;;1.35;1.05;;;;;;;;;;4933860;29;20209;-77
2021/11/27 02:28:48;;;;;;;1.00;0.90;;;;;;;;;;4934908;29;20568;-78
2021/11/27 02:31:15;;;;;;;1.17;1.08;;;;;;;;;;4933823;29;20198;-80
2021/11/27 02:33:43;;;;;;;1.20;1.10;;;;;;;;;;4935308;29;20215;-80
2021/11/27 02:36:10;;;;;;;2.60;1.00;;;;;;;;;;4934887;29;20556;-79
2021/11/27 02:38:39;;;;;;;0.80;0.80;;;;;;;;;;4938966;29;20245;-79
2021/11/27 02:41:06;;;;;;;1.67;1.10;;;;;;;;;;4939337;29;21034;-77
2021/11/27 02:43:33;;;;;;;1.20;1.10;;;;;;;;;;4934794;29;20223;-78
2021/11/27 02:46:02;;;;;;;0.93;0.82;;;;;;;;;;4934619;29;20207;-80
2021/11/27 02:48:29;;;;;;;1.05;0.80;;;;;;;;;;4934552;29;20262;-77
2021/11/27 02:50:57;;;;;;;1.00;0.90;;;;;;;;;;4934783;29;20682;-81
2021/11/27 02:53:24;;;;;;;1.52;1.15;;;;;;;;;;4920768;29;20230;-79
2021/11/27 02:55:53;;;;;;;0.90;0.80;;;;;;;;;;4931993;29;20201;-81
2021/11/27 02:58:20;;;;;;;1.10;1.00;;;;;;;;;;4940993;28;20234;-81
2021/11/27 03:00:48;;;;;;;1.52;1.10;;;;;;;;;;4948452;29;20206;-76
2021/11/27 03:03:16;;;;;;;1.27;1.17;;;;;;;;;;4942380;29;20576;-76
2021/11/27 03:05:44;;;;;;;2.17;1.25;;;;;;;;;;4933879;29;20210;-76
2021/11/27 03:08:11;;;;;;;2.05;1.20;;;;;;;;;;4932097;29;20218;-80
2021/11/27 03:10:38;;;;;;;2.00;1.30;;;;;;;;;;4933932;29;20207;-80
2021/11/27 03:13:07;;;;;;;1.20;1.08;;;;;;;;;;4937197;29;20217;-78
2021/11/27 03:15:41;;;;;;;1.00;0.90;;;;;;;;;;4940082;28;20210;-77
2021/11/27 03:18:08;;;;;;;1.20;1.10;;;;;;;;;;4951790;28;20226;-80
2021/11/27 03:20:35;;;;;;;1.23;1.10;;;;;;;;;;4936511;28;20211;-77
2021/11/27 03:23:03;;;;;;;2.15;1.23;;;;;;;;;;4931854;29;20226;-74
2021/11/27 03:25:33;;;;;;;2.38;1.35;;;;;;;;;;4932176;29;20203;-77
2021/11/27 03:28:01;;;;;;;1.95;1.73;;;;;;;;;;4934812;28;20237;-77
2021/11/27 03:30:29;;;;;;;1.77;1.50;;;;;;;;;;4940525;29;20209;-79
2021/11/27 03:32:56;;;;;;;3.10;1.67;;;;;;;;;;4949995;28;20205;-80
2021/11/27 03:35:24;;;;;;;1.73;1.63;;;;;;;;;;4951945;28;20578;-81
2021/11/27 03:37:51;;;;;;;2.97;1.80;;;;;;;;;;4951642;28;20225;-79
2021/11/27 03:40:19;;;;;;;2.05;1.90;;;;;;;;;;4952779;28;20221;-79
2021/11/27 03:42:46;;;;;;;5.10;2.10;;;;;;;;;;4953831;28;20308;-82
2021/11/27 03:45:15;;;;;;;2.40;1.70;;;;;;;;;;4938951;29;20213;-77
2021/11/27 03:47:55;;;;;;;2.15;1.95;;;;;;;;;;4940322;29;20226;-78
2021/11/27 03:50:23;;;;;;;3.38;1.95;;;;;;;;;;4951936;28;20216;-81
2021/11/27 03:52:50;;;;;;;3.85;2.05;;;;;;;;;;4952433;28;20229;-78
2021/11/27 03:55:17;;;;;;;2.10;1.90;;;;;;;;;;4952457;29;20202;-79
2021/11/27 03:57:45;;;;;;;1.88;1.70;;;;;;;;;;4932293;29;20238;-77
2021/11/27 04:00:12;;;;;;;1.50;1.40;;;;;;;;;;4936132;29;20210;-77
2021/11/27 04:02:40;;;;;;;1.80;1.70;;;;;;;;;;4940012;28;20228;-79
2021/11/27 04:05:09;;;;;;;2.03;1.80;;;;;;;;;;4935816;29;20198;-79
2021/11/27 04:07:36;;;;;;;1.88;1.75;;;;;;;;;;4931586;29;20732;-82
2021/11/27 04:10:04;;;;;;;1.90;1.70;;;;;;;;;;4932943;29;20206;-78
2021/11/27 04:12:31;;;;;;;2.00;1.70;;;;;;;;;;4931673;29;20213;-81
2021/11/27 04:14:58;;;;;;;2.85;2.40;;;;;;;;;;4929667;29;20202;-77
2021/11/27 04:17:26;;;;;;;2.50;2.30;;;;;;;;;;4935724;29;20237;-78
2021/11/27 04:19:53;;;;;;;4.07;2.70;;;;;;;;;;4940084;29;20221;-79
2021/11/27 04:22:21;;;;;;;2.50;2.30;;;;;;;;;;4942142;28;20594;-79
2021/11/27 04:24:49;;;;;;;4.30;2.55;;;;;;;;;;4931365;29;20202;-81
2021/11/27 04:27:16;;;;;;;2.95;2.60;;;;;;;;;;4932647;29;20222;-79
2021/11/27 04:29:43;;;;;;;2.67;2.10;;;;;;;;;;4932144;29;20668;-75
2021/11/27 04:32:10;;;;;;;2.10;2.00;;;;;;;;;;4935450;29;20202;-78
2021/11/27 04:34:38;;;;;;;2.72;2.20;;;;;;;;;;4933783;29;20221;-80
2021/11/27 04:37:09;;;;;;;2.92;2.40;;;;;;;;;;4934959;29;20287;-79
2021/11/27 04:39:38;;;;;;;2.40;2.00;;;;;;;;;;4937345;29;20227;-79
2021/11/27 04:42:05;;;;;;;1.90;1.80;;;;;;;;;;4943238;29;20202;-79
2021/11/27 04:44:33;;;;;;;2.17;1.90;;;;;;;;;;4936692;29;20206;-81
2021/11/27 04:47:00;;;;;;;2.53;2.33;;;;;;;;;;4934809;29;20222;-77
2021/11/27 04:49:28;;;;;;;5.07;2.60;;;;;;;;;;4935505;29;20566;-81
2021/11/27 04:51:55;;;;;;;3.10;2.80;;;;;;;;;;4935104;29;20561;-82
2021/11/27 04:54:22;;;;;;;3.40;2.90;;;;;;;;;;4937601;29;20561;-79
2021/11/27 04:56:51;;;;;;;2.97;2.58;;;;;;;;;;4936532;29;20230;-79
2021/11/27 04:59:18;;;;;;;4.75;3.08;;;;;;;;;;4937935;29;20238;-77
2021/11/27 05:01:45;;;;;;;3.00;2.70;;;;;;;;;;4942085;29;20203;-77
2021/11/27 05:04:13;;;;;;;3.22;2.90;;;;;;;;;;4943407;29;20230;-76
2021/11/27 05:06:40;;;;;;;3.40;3.10;;;;;;;;;;4954938;28;20309;-77
2021/11/27 05:09:07;;;;;;;3.35;3.05;;;;;;;;;;4969852;28;20202;-81
2021/11/27 05:11:34;;;;;;;4.38;3.00;;;;;;;;;;4955402;28;20209;-79
2021/11/27 05:14:03;;;;;;;3.10;2.80;;;;;;;;;;4934433;29;20206;-77
2021/11/27 05:16:31;;;;;;;6.13;2.78;;;;;;;;;;4935189;29;20218;-81
2021/11/27 05:18:58;;;;;;;3.80;2.80;;;;;;;;;;4943074;28;20707;-79
2021/11/27 05:21:26;;;;;;;3.33;3.03;;;;;;;;;;4939561;29;20677;-79
2021/11/27 05:23:53;;;;;;;3.75;3.08;;;;;;;;;;4932982;29;20229;-76
2021/11/27 05:26:20;;;;;;;3.95;3.40;;;;;;;;;;4935903;29;20202;-79
2021/11/27 05:28:47;;;;;;;3.17;2.70;;;;;;;;;;4935263;29;20648;-77
2021/11/27 05:31:18;;;;;;;4.22;3.00;;;;;;;;;;4934586;29;20206;-77
2021/11/27 05:33:59;;;;;;;3.55;3.25;;;;;;;;;;4931358;29;20190;-78
2021/11/27 05:36:28;;;;;;;3.10;2.80;;;;;;;;;;4954619;28;20265;-79
2021/11/27 05:38:55;;;;;;;3.08;2.75;;;;;;;;;;4953517;28;20206;-81
2021/11/27 05:41:22;;;;;;;3.85;3.45;;;;;;;;;;4940073;28;20560;-80
2021/11/27 05:43:49;;;;;;;4.18;2.85;;;;;;;;;;4934488;29;20343;-75
2021/11/27 05:46:18;;;;;;;4.50;2.70;;;;;;;;;;4932448;29;20203;-78
2021/11/27 05:48:45;;;;;;;3.75;3.00;;;;;;;;;;4936407;29;20210;-78
2021/11/27 05:51:13;;;;;;;2.75;2.55;;;;;;;;;;4941478;29;20202;-76
2021/11/27 05:53:40;;;;;;;3.45;3.15;;;;;;;;;;4937684;28;20623;-80
2021/11/27 05:56:07;;;;;;;3.35;3.05;;;;;;;;;;4934874;29;20199;-80
2021/11/27 05:58:35;;;;;;;3.70;3.25;;;;;;;;;;4934930;29;20238;-80
2021/11/27 06:01:05;;;;;;;3.85;3.10;;;;;;;;;;4933851;29;20206;-80
2021/11/27 06:03:35;;;;;;;3.95;3.25;;;;;;;;;;4935448;28;20256;-78
2021/11/27 06:06:02;;;;;;;4.05;3.65;;;;;;;;;;4940532;29;20222;-78
2021/11/27 06:08:30;;;;;;;3.30;3.00;;;;;;;;;;4944783;28;20218;-80
2021/11/27 06:10:57;;;;;;;3.67;3.25;;;;;;;;;;4953917;28;20711;-79
2021/11/27 06:13:24;;;;;;;3.60;3.30;;;;;;;;;;4953941;28;20200;-80
2021/11/27 06:15:52;;;;;;;3.78;3.47;;;;;;;;;;4950240;28;20229;-78
2021/11/27 06:18:19;;;;;;;4.28;3.30;;;;;;;;;;4926832;29;20237;-79
2021/11/27 06:20:47;;;;;;;4.15;3.58;;;;;;;;;;4939785;29;20198;-79
2021/11/27 06:23:14;;;;;;;6.05;4.60;;;;;;;;;;4942378;29;20707;-79
2021/11/27 06:25:42;;;;;;;8.18;4.68;;;;;;;;;;4948885;28;20309;-81
2021/11/27 06:28:09;;;;;;;4.68;4.15;;;;;;;;;;4931280;29;20226;-80
2021/11/27 06:30:40;;;;;;;5.20;4.43;;;;;;;;;;4934837;29;20210;-78
2021/11/27 06:33:07;;;;;;;5.50;4.78;;;;;;;;;;4933236;29;20552;-77
2021/11/27 06:35:34;;;;;;;5.43;4.93;;;;;;;;;;4933869;29;20207;-75
2021/11/27 06:38:03;;;;;;;8.15;4.95;;;;;;;;;;4936695;29;20237;-78
2021/11/27 06:40:30;;;;;;;5.70;4.93;;;;;;;;;;4935041;29;20211;-78
2021/11/27 06:43:00;;;;;;;6.18;4.45;;;;;;;;;;4941024;29;20584;-82
2021/11/27 06:45:27;;;;;;;6.35;4.70;;;;;;;;;;4942819;28;20758;-76
2021/11/27 06:47:55;;;;;;;8.10;6.07;;;;;;;;;;4949473;28;20661;-77
2021/11/27 06:50:22;;;;;;;8.40;6.80;;;;;;;;;;4934340;29;20207;-79
2021/11/27 06:52:49;;;;;;;8.02;5.30;;;;;;;;;;4934515;29;20203;-79
2021/11/27 06:55:18;;;;;;;10.32;6.28;;;;;;;;;;4932797;29;20207;-75
2021/11/27 06:57:45;;;;;;;7.15;6.00;;;;;;;;;;4935392;29;20341;-80
2021/11/27 07:00:13;;;;;;;13.48;6.07;;;;;;;;;;4935824;29;20213;-78
2021/11/27 07:02:41;;;;;;;6.38;5.22;;;;;;;;;;4935775;29;20657;-78
2021/11/27 07:05:09;;;;;;;10.23;5.70;;;;;;;;;;4938733;28;20553;-78
2021/11/27 07:07:36;;;;;;;9.50;6.63;;;;;;;;;;4938862;29;20789;-77
2021/11/27 07:10:03;;;;;;;6.80;4.90;;;;;;;;;;4933462;29;20210;-78
2021/11/27 07:12:32;;;;;;;7.75;5.68;;;;;;;;;;4933794;29;20242;-78
2021/11/27 07:15:02;;;;;;;6.95;5.47;;;;;;;;;;4932768;29;20277;-77
2021/11/27 07:17:30;;;;;;;8.52;5.65;;;;;;;;;;4931303;29;20222;-78
2021/11/27 07:19:57;;;;;;;6.70;5.30;;;;;;;;;;4938139;29;20281;-79
2021/11/27 07:22:25;;;;;;;8.18;6.20;;;;;;;;;;4953261;28;20210;-76
2021/11/27 07:24:52;;;;;;;6.65;5.50;;;;;;;;;;4946649;28;20224;-75
2021/11/27 07:27:19;;;;;;;9.63;5.38;;;;;;;;;;4932991;29;20226;-78
2021/11/27 07:29:48;;;;;;;6.13;5.40;;;;;;;;;;4931177;29;20661;-80
2021/11/27 07:32:16;;;;;;;7.32;5.53;;;;;;;;;;4933712;29;20564;-75
2021/11/27 07:34:44;;;;;;;6.60;5.00;;;;;;;;;;4935603;29;20237;-80
2021/11/27 07:37:11;;;;;;;7.00;5.80;;;;;;;;;;4940372;28;20214;-80
2021/11/27 07:39:38;;;;;;;10.43;6.10;;;;;;;;;;4933736;29;20206;-78
2021/11/27 07:42:06;;;;;;;8.48;5.18;;;;;;;;;;4933708;29;20207;-76
2021/11/27 07:44:33;;;;;;;6.97;5.70;;;;;;;;;;4932021;29;20232;-80
2021/11/27 07:47:02;;;;;;;7.07;5.85;;;;;;;;;;4933511;29;20602;-77
2021/11/27 07:49:29;;;;;;;6.50;5.35;;;;;;;;;;4933999;29;20209;-79
2021/11/27 07:51:56;;;;;;;9.80;6.03;;;;;;;;;;4938632;28;20209;-78
2021/11/27 07:54:24;;;;;;;8.18;6.05;;;;;;;;;;4934649;29;20209;-80
2021/11/27 07:56:52;;;;;;;7.05;5.38;;;;;;;;;;4931398;29;20223;-80
2021/11/27 07:59:20;;;;;;;9.85;6.13;;;;;;;;;;4933227;29;20214;-75
2021/11/27 08:01:47;;;;;;;7.00;5.93;;;;;;;;;;4932831;29;20542;-78
2021/11/27 08:04:18;;;;;;;6.13;5.40;;;;;;;;;;4934157;29;20230;-76
2021/11/27 08:06:45;;;;;;;6.30;5.15;;;;;;;;;;4957493;28;20209;-74
2021/11/27 08:09:12;;;;;;;6.28;5.35;;;;;;;;;;4951197;28;20206;-81
2021/11/27 08:11:40;;;;;;;8.27;5.63;;;;;;;;;;4931697;29;20213;-76
2021/11/27 08:14:07;;;;;;;8.82;6.13;;;;;;;;;;4933159;29;20194;-78
2021/11/27 08:16:34;;;;;;;8.10;5.30;;;;;;;;;;4933424;29;20226;-77
2021/11/27 08:19:01;;;;;;;7.18;5.38;;;;;;;;;;4937031;29;20567;-82
2021/11/27 08:21:30;;;;;;;9.82;6.15;;;;;;;;;;4943180;29;20931;-81
2021/11/27 08:23:57;;;;;;;11.63;6.35;;;;;;;;;;4943491;29;20230;-75
2021/11/27 08:26:24;;;;;;;7.97;6.00;;;;;;;;;;4952749;28;20568;-75
2021/11/27 08:28:51;;;;;;;6.70;5.43;;;;;;;;;;4935318;29;20656;-81
2021/11/27 08:31:19;;;;;;;6.28;5.53;;;;;;;;;;4933759;29;20195;-77
2021/11/27 08:33:47;;;;;;;7.15;4.97;;;;;;;;;;4935491;29;20199;-81
2021/11/27 08:36:14;;;;;;;6.65;5.15;;;;;;;;;;4938174;28;20541;-78
2021/11/27 08:38:42;;;;;;;6.65;4.90;;;;;;;;;;4943191;28;20210;-80
2021/11/27 08:41:09;;;;;;;6.30;5.55;;;;;;;;;;4936372;28;20202;-81
2021/11/27 08:43:37;;;;;;;6.00;5.03;;;;;;;;;;4936326;29;20591;-79
2021/11/27 08:46:05;;;;;;;9.35;5.22;;;;;;;;;;4936283;29;20211;-79
2021/11/27 08:48:36;;;;;;;6.75;5.07;;;;;;;;;;4935720;29;20230;-81
2021/11/27 08:51:03;;;;;;;7.20;4.80;;;;;;;;;;4937412;29;20213;-78
2021/11/27 08:53:31;;;;;;;4.90;4.40;;;;;;;;;;4941968;28;20217;-76
2021/11/27 08:55:59;;;;;;;6.15;4.70;;;;;;;;;;4939003;28;20203;-80
2021/11/27 08:58:27;;;;;;;5.88;4.47;;;;;;;;;;4935150;29;20234;-80
2021/11/27 09:00:54;;;;;;;5.13;4.03;;;;;;;;;;4935102;29;20665;-77
2021/11/27 09:03:21;;;;;;;5.68;4.45;;;;;;;;;;4934963;29;20202;-81
2021/11/27 09:05:48;;;;;;;4.00;3.60;;;;;;;;;;4936784;29;20206;-82
2021/11/27 09:08:16;;;;;;;5.22;4.00;;;;;;;;;;4942386;29;20231;-76
2021/11/27 09:10:44;;;;;;;5.47;4.50;;;;;;;;;;4940939;28;20208;-79
2021/11/27 09:13:12;;;;;;;6.70;3.47;;;;;;;;;;4935377;29;20215;-80
2021/11/27 09:15:39;;;;;;;8.38;3.58;;;;;;;;;;4935382;29;20678;-81
2021/11/27 09:18:09;;;;;;;7.40;3.92;;;;;;;;;;4934328;29;20222;-75
2021/11/27 09:20:36;;;;;;;7.20;3.90;;;;;;;;;;4936139;29;20237;-75
2021/11/27 09:23:04;;;;;;;5.05;3.20;;;;;;;;;;4931361;28;20225;-76
2021/11/27 09:25:31;;;;;;;8.98;3.60;;;;;;;;;;4942002;29;20214;-79
2021/11/27 09:27:58;;;;;;;9.32;3.88;;;;;;;;;;4937285;29;20226;-80
2021/11/27 09:30:28;;;;;;;6.07;4.38;;;;;;;;;;4934564;29;20837;-80
2021/11/27 09:32:55;;;;;;;4.18;3.75;;;;;;;;;;4933759;29;20203;-81
2021/11/27 09:35:22;;;;;;;4.15;3.47;;;;;;;;;;4936070;29;20198;-78
2021/11/27 09:37:50;;;;;;;5.07;3.55;;;;;;;;;;4935399;29;20226;-82
2021/11/27 09:40:18;;;;;;;5.13;4.10;;;;;;;;;;4936201;29;20198;-79
2021/11/27 09:42:46;;;;;;;4.50;3.92;;;;;;;;;;4937386;29;20214;-78
2021/11/27 09:45:13;;;;;;;5.32;3.90;;;;;;;;;;4937868;29;20313;-77
2021/11/27 09:47:45;;;;;;;4.60;3.65;;;;;;;;;;4942110;28;20698;-79
2021/11/27 09:50:12;;;;;;;7.15;3.72;;;;;;;;;;4946586;28;20229;-79
2021/11/27 09:52:39;;;;;;;5.00;3.88;;;;;;;;;;4954676;28;20202;-79
2021/11/27 09:55:07;;;;;;;6.28;4.65;;;;;;;;;;4943905;29;20667;-80
2021/11/27 09:57:35;;;;;;;5.50;4.05;;;;;;;;;;4934994;29;20242;-76
2021/11/27 10:00:02;;;;;;;8.80;3.85;;;;;;;;;;4935494;29;20207;-81
2021/11/27 10:02:30;;;;;;;5.15;3.63;;;;;;;;;;4937024;29;20211;-82
2021/11/27 10:04:59;;;;;;;5.60;3.72;;;;;;;;;;4935168;29;20229;-77
2021/11/27 10:07:27;;;;;;;4.68;3.67;;;;;;;;;;4938244;29;20218;-80
2021/11/27 10:09:54;;;;;;;5.63;3.40;;;;;;;;;;4942199;28;20589;-76
2021/11/27 10:12:22;;;;;;;8.27;3.40;;;;;;;;;;4946281;28;20253;-80
2021/11/27 10:14:49;;;;;;;6.20;3.30;;;;;;;;;;4954143;28;20202;-81
2021/11/27 10:17:17;;;;;;;5.85;3.80;;;;;;;;;;4941249;28;20722;-81
2021/11/27 10:19:47;;;;;;;4.13;3.17;;;;;;;;;;4933513;29;20206;-78
2021/11/27 10:22:17;;;;;;;5.65;3.53;;;;;;;;;;4932325;29;20209;-78
2021/11/27 10:24:47;;;;;;;6.28;4.10;;;;;;;;;;4955764;28;20218;-77
2021/11/27 10:27:18;;;;;;;11.85;4.20;;;;;;;;;;4935341;29;20227;-77
2021/11/27 10:29:56;;;;;;;6.57;5.40;;;;;;;;;;4933206;29;20206;-77
2021/11/27 10:32:30;;;;;;;5.07;4.57;;;;;;;;;;4931862;29;20664;-82
2021/11/27 10:34:57;;;;;;;7.30;4.95;;;;;;;;;;4932723;29;20205;-79
2021/11/27 10:37:27;;;;;;;4.38;3.90;;;;;;;;;;4932727;29;20254;-79
2021/11/27 10:39:58;;;;;;;9.00;4.60;;;;;;;;;;4939627;28;20206;-80
2021/11/27 10:42:26;;;;;;;7.50;4.50;;;;;;;;;;4955335;28;20663;-80
2021/11/27 10:44:54;;;;;;;6.18;5.07;;;;;;;;;;4953067;28;20233;-76
2021/11/27 10:47:21;;;;;;;5.70;4.35;;;;;;;;;;4966841;28;20228;-77
2021/11/27 10:49:49;;;;;;;12.48;5.50;;;;;;;;;;4951538;28;20731;-74
2021/11/27 10:52:17;;;;;;;6.28;4.60;;;;;;;;;;4950379;28;20202;-77
2021/11/27 10:54:49;;;;;;;7.93;4.57;;;;;;;;;;4939981;29;20202;-77
2021/11/27 10:57:31;;;;;;;8.57;4.95;;;;;;;;;;4939786;28;20230;-78
2021/11/27 11:00:00;;;;;;;6.25;4.20;;;;;;;;;;4926899;29;20678;-77
2021/11/27 11:02:28;;;;;;;6.20;4.60;;;;;;;;;;4929489;29;20221;-78
2021/11/27 11:05:04;;;;;;;8.70;4.78;;;;;;;;;;4931432;29;20223;-80
2021/11/27 11:07:31;;;;;;;6.45;3.90;;;;;;;;;;4931143;29;20232;-79
2021/11/27 11:10:01;;;;;;;5.35;4.20;;;;;;;;;;4935177;29;20190;-77
2021/11/27 11:12:33;;;;;;;9.75;4.78;;;;;;;;;;4940092;29;20202;-78
2021/11/27 11:15:08;;;;;;;8.20;4.32;;;;;;;;;;4934919;29;20201;-79
2021/11/27 11:17:35;;;;;;;7.15;4.20;;;;;;;;;;4932767;29;20270;-81
2021/11/27 11:20:12;;;;;;;4.95;3.65;;;;;;;;;;4934041;29;20198;-77
2021/11/27 11:22:39;;;;;;;9.48;4.30;;;;;;;;;;4932485;29;20198;-76
2021/11/27 11:25:10;;;;;;;8.90;4.10;;;;;;;;;;4933359;29;20226;-78
2021/11/27 11:27:40;;;;;;;10.15;5.15;;;;;;;;;;4955412;28;20317;-78
2021/11/27 11:30:08;;;;;;;6.60;5.15;;;;;;;;;;4936771;29;20385;-81
2021/11/27 11:32:35;;;;;;;7.47;4.40;;;;;;;;;;4931239;29;20286;-77
2021/11/27 11:35:03;;;;;;;7.70;4.00;;;;;;;;;;4933405;29;20442;-81
2021/11/27 11:37:31;;;;;;;5.65;3.47;;;;;;;;;;4932041;29;20227;-78
2021/11/27 11:39:58;;;;;;;7.20;3.80;;;;;;;;;;4933909;29;20286;-79
2021/11/27 11:42:28;;;;;;;13.90;3.78;;;;;;;;;;4935760;29;20203;-78
2021/11/27 11:44:56;;;;;;;9.77;4.05;;;;;;;;;;4933879;29;20225;-80
2021/11/27 11:47:23;;;;;;;10.55;4.25;;;;;;;;;;4935099;29;20209;-79
2021/11/27 11:49:53;;;;;;;7.57;3.50;;;;;;;;;;4940010;28;20198;-77
2021/11/27 11:52:22;;;;;;;7.50;4.68;;;;;;;;;;4945754;28;20214;-81
2021/11/27 11:54:50;;;;;;;8.45;3.78;;;;;;;;;;4952383;28;20409;-81
2021/11/27 11:57:17;;;;;;;8.95;3.50;;;;;;;;;;4951913;28;20594;-80
2021/11/27 11:59:47;;;;;;;7.40;3.75;;;;;;;;;;4945666;28;20199;-80
2021/11/27 12:02:16;;;;;;;7.78;4.10;;;;;;;;;;4923380;29;20201;-79
2021/11/27 12:04:58;;;;;;;8.23;4.35;;;;;;;;;;4940304;29;20789;-78
2021/11/27 12:07:40;;;;;;;11.38;4.88;;;;;;;;;;4940289;28;20223;-77
2021/11/27 12:10:13;;;;;;;11.27;5.07;;;;;;;;;;4913213;29;20693;-79
2021/11/27 12:12:41;;;;;;;12.90;4.60;;;;;;;;;;4919926;29;20199;-77
2021/11/27 12:15:10;;;;;;;7.28;3.53;;;;;;;;;;4932685;29;20198;-79
2021/11/27 12:17:52;;;;;;;10.15;4.07;;;;;;;;;;4931448;29;20218;-77
2021/11/27 12:20:19;;;;;;;7.18;3.50;;;;;;;;;;4935096;29;20209;-77
2021/11/27 12:22:46;;;;;;;12.23;4.60;;;;;;;;;;4934581;29;20213;-80
2021/11/27 12:25:16;;;;;;;6.65;4.13;;;;;;;;;;4931136;28;20441;-79
2021/11/27 12:27:58;;;;;;;6.47;3.35;;;;;;;;;;4934634;28;20301;-79
2021/11/27 12:30:26;;;;;;;5.43;3.40;;;;;;;;;;4945248;28;20558;-77
2021/11/27 12:32:54;;;;;;;9.50;4.03;;;;;;;;;;4930380;29;20214;-76
2021/11/27 12:35:36;;;;;;;6.03;3.67;;;;;;;;;;4931530;29;20202;-76
2021/11/27 12:38:31;;;;;;;6.30;3.40;;;;;;;;;;4929915;29;20226;-76
2021/11/27 12:40:59;;;;;;;7.43;3.78;;;;;;;;;;4914987;29;20682;-75
2021/11/27 12:43:27;;;;;;;9.13;3.40;;;;;;;;;;4926599;29;20210;-80
2021/11/27 12:45:57;;;;;;;4.35;2.90;;;;;;;;;;4933378;29;20262;-76
2021/11/27 12:48:39;;;;;;;7.00;3.95;;;;;;;;;;4939107;29;20214;-76
2021/11/27 12:51:21;;;;;;;5.68;3.20;;;;;;;;;;4948709;28;20203;-75
2021/11/27 12:54:04;;;;;;;7.25;3.10;;;;;;;;;;4926446;29;20202;-77
2021/11/27 12:56:32;;;;;;;6.65;3.00;;;;;;;;;;4931180;29;20258;-79
2021/11/27 12:59:00;;;;;;;6.85;3.20;;;;;;;;;;4931783;29;20330;-80
2021/11/27 13:01:29;;;;;;;4.88;3.28;;;;;;;;;;4930035;29;20657;-81
2021/11/27 13:03:57;;;;;;;7.65;2.90;;;;;;;;;;4939751;29;20297;-78
2021/11/27 13:06:25;;;;;;;6.28;3.03;;;;;;;;;;4956010;28;20222;-78
2021/11/27 13:08:52;;;;;;;4.47;2.80;;;;;;;;;;4954402;28;20208;-77
2021/11/27 13:11:21;;;;;;;9.60;3.00;;;;;;;;;;4954648;28;20537;-81
2021/11/27 13:13:49;;;;;;;5.65;2.90;;;;;;;;;;4969724;28;20202;-79
2021/11/27 13:16:18;;;;;;;7.60;3.17;;;;;;;;;;4940515;28;20223;-80
2021/11/27 13:18:48;;;;;;;4.38;2.63;;;;;;;;;;4939574;29;20294;-81
2021/11/27 13:21:16;;;;;;;5.20;2.47;;;;;;;;;;4957976;28;20211;-82
2021/11/27 13:23:44;;;;;;;5.45;2.88;;;;;;;;;;4941527;29;20213;-79
2021/11/27 13:26:12;;;;;;;9.43;3.10;;;;;;;;;;4914833;29;20222;-80
2021/11/27 13:28:41;;;;;;;9.43;3.40;;;;;;;;;;4929611;29;20215;-78
2021/11/27 13:31:09;;;;;;;5.95;3.03;;;;;;;;;;4935996;29;20537;-77
2021/11/27 13:33:51;;;;;;;6.28;2.90;;;;;;;;;;4932859;29;20210;-76
2021/11/27 13:36:28;;;;;;;7.72;3.53;;;;;;;;;;4931686;29;20682;-78
2021/11/27 13:38:55;;;;;;;7.85;2.70;;;;;;;;;;4917353;29;20203;-77
2021/11/27 13:41:23;;;;;;;5.85;2.42;;;;;;;;;;4939666;29;20198;-78
2021/11/27 13:43:51;;;;;;;5.03;3.08;;;;;;;;;;4940831;28;20666;-79
2021/11/27 13:46:18;;;;;;;4.70;2.78;;;;;;;;;;4933647;29;20222;-76
2021/11/27 13:48:45;;;;;;;7.50;2.90;;;;;;;;;;4935475;29;20305;-77
2021/11/27 13:51:19;;;;;;;11.10;3.42;;;;;;;;;;4935681;29;20199;-77
2021/11/27 13:53:49;;;;;;;5.28;2.40;;;;;;;;;;4933963;29;20210;-77
2021/11/27 13:56:16;;;;;;;6.82;2.70;;;;;;;;;;4934400;29;20253;-81
2021/11/27 13:58:44;;;;;;;3.85;2.40;;;;;;;;;;4937019;29;20317;-80
2021/11/27 14:01:14;;;;;;;4.57;2.47;;;;;;;;;;4936142;29;20213;-78
2021/11/27 14:03:41;;;;;;;5.18;2.65;;;;;;;;;;4940731;29;20712;-77
2021/11/27 14:06:11;;;;;;;5.25;2.13;;;;;;;;;;4940742;29;20218;-79
2021/11/27 14:08:39;;;;;;;3.15;2.10;;;;;;;;;;4933437;29;20317;-75
2021/11/27 14:11:09;;;;;;;4.65;2.53;;;;;;;;;;4935285;29;20245;-78
2021/11/27 14:13:38;;;;;;;4.68;2.47;;;;;;;;;;4933877;29;20218;-80
2021/11/27 14:16:05;;;;;;;7.65;2.67;;;;;;;;;;4930444;29;20562;-79
2021/11/27 14:18:33;;;;;;;8.45;3.03;;;;;;;;;;4935597;29;20218;-78
2021/11/27 14:21:03;;;;;;;3.70;2.20;;;;;;;;;;4941947;29;21039;-78
2021/11/27 14:23:32;;;;;;;7.25;2.47;;;;;;;;;;4934089;29;20203;-78
2021/11/27 14:26:02;;;;;;;5.63;2.63;;;;;;;;;;4932272;29;20692;-76
2021/11/27 14:28:31;;;;;;;4.82;2.30;;;;;;;;;;4933532;29;20256;-79
2021/11/27 14:31:07;;;;;;;4.85;2.30;;;;;;;;;;4934514;29;20221;-79
2021/11/27 14:33:35;;;;;;;4.90;2.30;;;;;;;;;;4936436;29;20211;-77
2021/11/27 14:36:04;;;;;;;6.03;2.92;;;;;;;;;;4942106;29;20190;-77
2021/11/27 14:38:33;;;;;;;4.32;2.05;;;;;;;;;;4964706;28;20706;-78
2021/11/27 14:41:01;;;;;;;4.05;2.30;;;;;;;;;;4953753;29;20651;-80
2021/11/27 14:43:28;;;;;;;5.40;2.75;;;;;;;;;;4953826;28;20201;-79
2021/11/27 14:45:57;;;;;;;5.68;2.63;;;;;;;;;;4953790;29;20776;-78
2021/11/27 14:48:32;;;;;;;6.70;2.80;;;;;;;;;;4934129;29;20233;-76
2021/11/27 14:50:59;;;;;;;7.65;2.50;;;;;;;;;;4941575;29;20205;-79